Time;durP1;ratioP1;P1;durP2;ratioP2;P2;SDS_P1;SDS_P2;PMS_P1;PMS_P2;Temp;Humidity;BMP_temperature;BMP_pressure;BME280_temperature;BME280_humidity;BME280_pressure;Samples;Min_cycle;Max_cycle;Signal;HPM_P1;HPM_P2
2022/08/22 00:01:11;;;;;;;1.43;0.90;;;;;;;;;;7389742;19;20012;-72
2022/08/22 00:03:57;;;;;;;4.43;1.42;;;;;;;;;;7388979;19;20270;-72
2022/08/22 00:06:37;;;;;;;1.50;1.13;;;;;;;;;;7385305;19;20003;-72
2022/08/22 00:09:48;;;;;;;2.70;1.20;;;;;;;;;;7387368;19;20475;-72
2022/08/22 00:12:32;;;;;;;1.70;1.00;;;;;;;;;;7384586;19;20027;-72
2022/08/22 00:15:05;;;;;;;0.95;0.82;;;;;;;;;;7384658;19;20009;-72
2022/08/22 00:17:48;;;;;;;0.95;0.85;;;;;;;;;;7385686;19;20026;-72
2022/08/22 00:20:45;;;;;;;1.58;0.50;;;;;;;;;;7386502;19;20021;-72
2022/08/22 00:23:20;;;;;;;2.03;1.10;;;;;;;;;;7388283;19;20006;-72
2022/08/22 00:26:02;;;;;;;1.13;1.02;;;;;;;;;;7391930;19;20496;-72
2022/08/22 00:28:33;;;;;;;2.78;0.95;;;;;;;;;;7390834;19;20004;-72
2022/08/22 00:31:08;;;;;;;1.27;0.90;;;;;;;;;;7389010;19;20090;-72
2022/08/22 00:33:45;;;;;;;1.33;0.75;;;;;;;;;;7390583;19;20003;-72
2022/08/22 00:36:23;;;;;;;2.42;1.00;;;;;;;;;;7387641;19;20006;-72
2022/08/22 00:39:14;;;;;;;1.70;0.63;;;;;;;;;;7390025;19;19999;-72
2022/08/22 00:41:58;;;;;;;1.42;0.80;;;;;;;;;;7389925;19;20066;-73
2022/08/22 00:44:59;;;;;;;1.52;0.95;;;;;;;;;;7389532;19;19998;-71
2022/08/22 00:47:48;;;;;;;0.77;0.77;;;;;;;;;;7387842;19;20089;-73
2022/08/22 00:50:43;;;;;;;3.17;1.33;;;;;;;;;;7389504;19;19999;-73
2022/08/22 00:53:39;;;;;;;2.28;1.20;;;;;;;;;;7390582;19;19994;-72
2022/08/22 00:56:25;;;;;;;1.05;0.98;;;;;;;;;;7384054;19;20003;-72
2022/08/22 00:59:12;;;;;;;0.77;0.75;;;;;;;;;;7385381;19;20558;-72
2022/08/22 01:02:00;;;;;;;1.65;1.20;;;;;;;;;;7385096;19;20479;-72
2022/08/22 01:04:38;;;;;;;2.60;1.10;;;;;;;;;;7384673;19;19998;-72
2022/08/22 01:07:29;;;;;;;1.27;1.00;;;;;;;;;;7383501;19;20032;-72
2022/08/22 01:10:23;;;;;;;1.55;0.80;;;;;;;;;;7384998;19;19995;-72
2022/08/22 01:13:22;;;;;;;1.65;0.88;;;;;;;;;;7382519;19;19998;-72
2022/08/22 01:15:52;;;;;;;2.05;0.90;;;;;;;;;;7384455;19;20373;-72
2022/08/22 01:18:36;;;;;;;4.00;1.13;;;;;;;;;;7388632;19;19999;-72
2022/08/22 01:21:22;;;;;;;1.52;1.00;;;;;;;;;;7388184;19;19999;-72
2022/08/22 01:24:26;;;;;;;1.55;1.08;;;;;;;;;;7388344;19;20010;-70
2022/08/22 01:27:31;;;;;;;1.38;1.00;;;;;;;;;;7386554;19;20003;-71
2022/08/22 01:30:19;;;;;;;12.52;1.10;;;;;;;;;;7388103;19;20027;-73
2022/08/22 01:33:08;;;;;;;1.38;0.90;;;;;;;;;;7386178;19;20464;-72
2022/08/22 01:35:58;;;;;;;1.25;0.90;;;;;;;;;;7385500;19;19999;-72
2022/08/22 01:38:32;;;;;;;1.90;1.30;;;;;;;;;;7387876;19;20463;-70
2022/08/22 01:41:06;;;;;;;1.08;0.93;;;;;;;;;;7386056;19;20001;-71
2022/08/22 01:44:23;;;;;;;2.58;1.20;;;;;;;;;;7391905;19;20100;-71
2022/08/22 01:46:48;;;;;;;1.40;1.10;;;;;;;;;;7391560;19;20002;-71
2022/08/22 01:49:26;;;;;;;2.85;1.35;;;;;;;;;;7393725;19;20089;-71
2022/08/22 01:52:10;;;;;;;39.92;2.20;;;;;;;;;;7393902;19;20058;-72
2022/08/22 01:54:57;;;;;;;0.93;0.82;;;;;;;;;;7394955;19;20009;-72
2022/08/22 01:57:23;;;;;;;346.30;98.95;;;;;;;;;;7392146;19;20016;-72
2022/08/22 01:59:54;;;;;;;0.98;0.85;;;;;;;;;;7395541;19;19990;-72
2022/08/22 02:02:55;;;;;;;1.20;1.10;;;;;;;;;;7399115;19;20001;-72
2022/08/22 02:05:23;;;;;;;1.60;1.17;;;;;;;;;;7392331;19;19995;-72
2022/08/22 02:08:15;;;;;;;2.17;1.17;;;;;;;;;;7391994;19;20545;-72
2022/08/22 02:10:58;;;;;;;0.82;0.82;;;;;;;;;;7394858;19;20089;-72
2022/08/22 02:13:53;;;;;;;1.05;1.00;;;;;;;;;;7393479;19;19998;-72
2022/08/22 02:16:37;;;;;;;1.25;1.05;;;;;;;;;;7391103;19;19998;-72
2022/08/22 02:19:18;;;;;;;178.00;16.33;;;;;;;;;;7394505;19;20005;-72
2022/08/22 02:21:52;;;;;;;1.70;0.90;;;;;;;;;;7394976;19;20104;-72
2022/08/22 02:24:46;;;;;;;1.48;1.00;;;;;;;;;;7394281;19;20013;-72
2022/08/22 02:27:30;;;;;;;1.15;1.08;;;;;;;;;;7392942;19;20067;-72
2022/08/22 02:30:05;;;;;;;1.85;1.15;;;;;;;;;;7395339;19;19998;-72
2022/08/22 02:32:40;;;;;;;0.88;0.85;;;;;;;;;;7392059;19;19994;-72
2022/08/22 02:35:21;;;;;;;0.85;0.80;;;;;;;;;;7393043;19;19999;-72
2022/08/22 02:38:04;;;;;;;1.95;1.10;;;;;;;;;;7390812;19;20002;-73
2022/08/22 02:40:39;;;;;;;1.20;1.08;;;;;;;;;;7392094;19;20010;-72
2022/08/22 02:43:20;;;;;;;1.80;1.30;;;;;;;;;;7392694;19;20018;-72
2022/08/22 02:45:53;;;;;;;1.48;1.10;;;;;;;;;;7386880;19;19995;-72
2022/08/22 02:48:18;;;;;;;0.80;0.80;;;;;;;;;;7388182;19;20472;-72
2022/08/22 02:50:55;;;;;;;0.60;0.60;;;;;;;;;;7387161;19;20013;-72
2022/08/22 02:53:48;;;;;;;4.13;1.40;;;;;;;;;;7384409;19;20024;-72
2022/08/22 02:56:22;;;;;;;1.02;1.00;;;;;;;;;;7383740;19;20523;-72
2022/08/22 02:58:54;;;;;;;1.25;1.10;;;;;;;;;;7388543;19;19994;-72
2022/08/22 03:01:35;;;;;;;2.10;1.13;;;;;;;;;;7393839;19;19998;-72
2022/08/22 03:04:20;;;;;;;1.85;1.00;;;;;;;;;;7392620;19;20090;-72
2022/08/22 03:07:21;;;;;;;1.42;1.13;;;;;;;;;;7391442;19;20005;-72
2022/08/22 03:10:12;;;;;;;0.93;0.88;;;;;;;;;;7392706;19;20010;-72
2022/08/22 03:12:52;;;;;;;0.82;0.82;;;;;;;;;;7390471;19;20719;-72
2022/08/22 03:15:20;;;;;;;0.90;0.90;;;;;;;;;;7391388;19;20003;-72
2022/08/22 03:18:02;;;;;;;1.20;1.10;;;;;;;;;;7390759;19;20684;-72
2022/08/22 03:21:19;;;;;;;1.58;1.17;;;;;;;;;;7390996;19;20027;-72
2022/08/22 03:23:50;;;;;;;1.00;0.90;;;;;;;;;;7390347;19;20401;-72
2022/08/22 03:26:25;;;;;;;1.13;1.02;;;;;;;;;;7388946;19;20353;-72
2022/08/22 03:28:55;;;;;;;1.33;0.85;;;;;;;;;;7392103;19;19994;-72
2022/08/22 03:31:24;;;;;;;1.43;1.30;;;;;;;;;;7391838;19;20003;-72
2022/08/22 03:34:21;;;;;;;1.10;1.00;;;;;;;;;;7391713;19;20078;-72
2022/08/22 03:37:27;;;;;;;0.90;0.88;;;;;;;;;;7390965;19;19995;-72
2022/08/22 03:40:19;;;;;;;2.42;1.25;;;;;;;;;;7392160;19;20475;-72
2022/08/22 03:43:12;;;;;;;1.45;0.90;;;;;;;;;;7390302;19;20006;-72
2022/08/22 03:45:40;;;;;;;3.30;1.30;;;;;;;;;;7389688;19;19998;-72
2022/08/22 03:48:34;;;;;;;2.10;1.23;;;;;;;;;;7390864;19;20532;-72
2022/08/22 03:51:19;;;;;;;2.17;1.30;;;;;;;;;;7391762;19;19999;-72
2022/08/22 03:54:08;;;;;;;1.00;1.00;;;;;;;;;;7393467;19;20333;-72
2022/08/22 03:56:50;;;;;;;2.20;1.20;;;;;;;;;;7388238;19;20395;-72
2022/08/22 03:59:37;;;;;;;3.45;1.85;;;;;;;;;;7391699;19;19999;-72
2022/08/22 04:02:08;;;;;;;1.23;0.93;;;;;;;;;;7391183;19;20040;-72
2022/08/22 04:04:52;;;;;;;1.98;1.38;;;;;;;;;;7391321;19;20026;-72
2022/08/22 04:07:34;;;;;;;7.03;1.40;;;;;;;;;;7386361;19;20010;-73
2022/08/22 04:10:36;;;;;;;2.72;1.23;;;;;;;;;;7391757;19;19995;-72
2022/08/22 04:13:30;;;;;;;0.85;0.85;;;;;;;;;;7389648;19;19998;-72
2022/08/22 04:16:08;;;;;;;3.05;1.05;;;;;;;;;;7387976;19;20026;-72
2022/08/22 04:18:50;;;;;;;2.20;1.20;;;;;;;;;;7391989;19;20026;-72
2022/08/22 04:21:30;;;;;;;2.30;1.25;;;;;;;;;;7390845;19;20083;-72
2022/08/22 04:24:13;;;;;;;1.70;0.85;;;;;;;;;;7392970;19;20022;-73
2022/08/22 04:26:49;;;;;;;3.10;1.50;;;;;;;;;;7389453;19;20017;-72
2022/08/22 04:29:29;;;;;;;1.05;0.95;;;;;;;;;;7390360;19;20544;-72
2022/08/22 04:32:21;;;;;;;2.03;1.23;;;;;;;;;;7392189;19;20078;-72
2022/08/22 04:35:05;;;;;;;3.58;1.70;;;;;;;;;;7389433;19;20010;-72
2022/08/22 04:37:40;;;;;;;2.25;1.20;;;;;;;;;;7390712;19;20414;-72
2022/08/22 04:40:20;;;;;;;3.53;1.35;;;;;;;;;;7387381;19;20030;-72
2022/08/22 04:42:52;;;;;;;2.33;1.03;;;;;;;;;;7392638;19;19994;-71
2022/08/22 04:45:40;;;;;;;6.95;3.25;;;;;;;;;;7391868;19;20515;-71
2022/08/22 04:48:16;;;;;;;3.13;1.52;;;;;;;;;;7389494;19;20006;-73
2022/08/22 04:50:47;;;;;;;3.65;1.80;;;;;;;;;;7392287;19;20002;-72
2022/08/22 04:54:02;;;;;;;1.23;1.10;;;;;;;;;;7323641;19;20415;-73
2022/08/22 04:56:50;;;;;;;4.22;1.20;;;;;;;;;;7386633;19;20006;-72
2022/08/22 04:59:17;;;;;;;1.30;1.20;;;;;;;;;;7390011;19;21038;-72
2022/08/22 05:01:58;;;;;;;2.78;1.33;;;;;;;;;;7389139;19;20036;-71
2022/08/22 05:04:30;;;;;;;;;;;;;;;;;;7390037;19;20467;-72
2022/08/22 05:07:04;;;;;;;1.45;0.95;;;;;;;;;;7390961;19;19915;-72
2022/08/22 05:09:32;;;;;;;3.05;1.27;;;;;;;;;;7390667;19;19991;-72
2022/08/22 05:12:04;;;;;;;1.92;1.10;;;;;;;;;;7391994;19;20389;-74
2022/08/22 05:14:43;;;;;;;1.95;1.00;;;;;;;;;;7386738;19;20007;-73
2022/08/22 05:17:13;;;;;;;3.67;1.70;;;;;;;;;;7386955;19;20005;-71
2022/08/22 05:19:44;;;;;;;5.00;2.10;;;;;;;;;;7386935;19;20106;-71
2022/08/22 05:22:20;;;;;;;1.33;0.93;;;;;;;;;;7388571;19;20033;-71
2022/08/22 05:24:48;;;;;;;4.22;1.45;;;;;;;;;;7388024;19;20007;-71
2022/08/22 05:27:19;;;;;;;1.92;1.40;;;;;;;;;;7387440;19;19998;-72
2022/08/22 05:29:47;;;;;;;1.50;1.02;;;;;;;;;;7386520;19;20001;-71
2022/08/22 05:32:27;;;;;;;1.17;1.00;;;;;;;;;;7387997;19;19998;-72
2022/08/22 05:34:58;;;;;;;1.10;1.10;;;;;;;;;;7386068;19;20011;-76
2022/08/22 05:37:38;;;;;;;3.70;1.58;;;;;;;;;;7388079;19;20026;-76
2022/08/22 05:40:06;;;;;;;1.27;1.17;;;;;;;;;;7384058;19;20488;-77
2022/08/22 05:42:35;;;;;;;3.33;1.08;;;;;;;;;;7391784;19;20417;-77
2022/08/22 05:45:03;;;;;;;2.33;1.35;;;;;;;;;;7387938;19;20010;-77
2022/08/22 05:47:31;;;;;;;1.15;1.00;;;;;;;;;;7390067;19;20010;-76
2022/08/22 05:49:57;;;;;;;2.15;1.30;;;;;;;;;;7389467;19;20553;-76
2022/08/22 05:52:28;;;;;;;2.50;1.40;;;;;;;;;;7390709;19;20081;-78
2022/08/22 05:55:03;;;;;;;2.15;1.33;;;;;;;;;;7390917;19;20240;-76
2022/08/22 05:57:38;;;;;;;1.00;0.90;;;;;;;;;;7388491;19;20005;-76
2022/08/22 06:00:10;;;;;;;2.92;1.30;;;;;;;;;;7389545;19;19998;-77
2022/08/22 06:02:57;;;;;;;3.33;1.40;;;;;;;;;;7389729;19;19999;-77
2022/08/22 06:05:26;;;;;;;2.30;1.50;;;;;;;;;;7388072;19;20238;-77
2022/08/22 06:07:59;;;;;;;8.98;5.45;;;;;;;;;;7388966;19;19998;-76
2022/08/22 06:10:46;;;;;;;4.80;1.92;;;;;;;;;;7390038;19;20076;-77
2022/08/22 06:13:31;;;;;;;1.23;1.10;;;;;;;;;;7387772;19;20036;-75
2022/08/22 06:16:17;;;;;;;3.10;1.25;;;;;;;;;;7386882;19;20472;-76
2022/08/22 06:18:44;;;;;;;1.48;1.13;;;;;;;;;;7388491;19;20027;-77
2022/08/22 06:21:17;;;;;;;1.65;1.02;;;;;;;;;;7387446;19;19998;-76
2022/08/22 06:23:48;;;;;;;1.70;1.00;;;;;;;;;;7389156;19;20003;-79
2022/08/22 06:26:19;;;;;;;1.40;1.05;;;;;;;;;;7386729;19;20006;-76
2022/08/22 06:28:51;;;;;;;1.58;1.10;;;;;;;;;;7389890;19;20003;-76
2022/08/22 06:31:38;;;;;;;2.15;1.30;;;;;;;;;;7393857;19;20386;-78
2022/08/22 06:34:23;;;;;;;2.90;1.30;;;;;;;;;;7391839;19;20002;-76
2022/08/22 06:36:51;;;;;;;1.15;1.05;;;;;;;;;;7392193;19;19994;-76
2022/08/22 06:39:28;;;;;;;1.42;1.20;;;;;;;;;;7393534;19;20344;-77
2022/08/22 06:42:13;;;;;;;4.63;1.50;;;;;;;;;;7393471;19;20065;-78
2022/08/22 06:44:59;;;;;;;2.40;1.48;;;;;;;;;;7391791;19;20006;-78
2022/08/22 06:47:29;;;;;;;1.92;1.30;;;;;;;;;;7393372;19;20473;-76
2022/08/22 06:50:00;;;;;;;1.75;1.20;;;;;;;;;;7395239;19;20002;-76
2022/08/22 06:52:28;;;;;;;1.77;1.30;;;;;;;;;;7394715;19;20002;-78
2022/08/22 06:54:59;;;;;;;1.77;1.35;;;;;;;;;;7392833;19;20002;-75
2022/08/22 06:57:33;;;;;;;1.52;1.30;;;;;;;;;;7391376;19;19999;-71
2022/08/22 07:00:01;;;;;;;6.25;1.85;;;;;;;;;;7393060;19;20411;-73
2022/08/22 07:02:45;;;;;;;2.90;1.50;;;;;;;;;;7392246;19;20003;-70
2022/08/22 07:05:24;;;;;;;3.10;1.60;;;;;;;;;;7390251;19;19998;-72
2022/08/22 07:07:51;;;;;;;1.30;1.20;;;;;;;;;;7394535;19;20097;-71
2022/08/22 07:10:20;;;;;;;2.40;1.35;;;;;;;;;;7391730;19;19998;-72
2022/08/22 07:12:49;;;;;;;1.48;1.13;;;;;;;;;;7393448;19;20006;-71
2022/08/22 07:15:31;;;;;;;1.60;1.10;;;;;;;;;;7394332;19;20022;-70
2022/08/22 07:17:58;;;;;;;2.08;1.42;;;;;;;;;;7392347;19;20037;-69
2022/08/22 07:20:30;;;;;;;3.53;1.35;;;;;;;;;;7394556;19;20013;-71
2022/08/22 07:23:00;;;;;;;3.25;1.38;;;;;;;;;;7394326;19;20011;-71
2022/08/22 07:25:27;;;;;;;1.33;1.23;;;;;;;;;;7394515;19;20018;-71
2022/08/22 07:28:16;;;;;;;2.90;1.45;;;;;;;;;;7393995;19;20337;-71
2022/08/22 07:31:01;;;;;;;3.00;1.50;;;;;;;;;;7394828;19;20002;-71
2022/08/22 07:33:38;;;;;;;2.50;1.50;;;;;;;;;;7392003;19;19999;-72
2022/08/22 07:36:25;;;;;;;2.42;1.33;;;;;;;;;;7392705;19;20010;-72
2022/08/22 07:39:05;;;;;;;2.13;1.58;;;;;;;;;;7394979;19;19999;-70
2022/08/22 07:41:50;;;;;;;2.42;1.20;;;;;;;;;;7395314;19;19990;-70
2022/08/22 07:44:20;;;;;;;1.65;1.30;;;;;;;;;;7389804;19;20014;-70
2022/08/22 07:46:59;;;;;;;2.07;1.40;;;;;;;;;;7390629;19;20014;-70
2022/08/22 07:49:31;;;;;;;1.92;1.45;;;;;;;;;;7391471;19;20247;-70
2022/08/22 07:52:02;;;;;;;1.48;1.27;;;;;;;;;;7391920;19;20006;-71
2022/08/22 07:54:40;;;;;;;1.25;1.17;;;;;;;;;;7394708;19;20086;-71
2022/08/22 07:57:11;;;;;;;1.48;1.20;;;;;;;;;;7392521;19;20369;-71
2022/08/22 07:59:47;;;;;;;1.67;1.40;;;;;;;;;;7393784;19;20009;-70
2022/08/22 08:02:16;;;;;;;2.33;1.80;;;;;;;;;;7392969;19;20005;-70
2022/08/22 08:04:42;;;;;;;1.63;1.20;;;;;;;;;;7391782;19;20016;-71
2022/08/22 08:07:13;;;;;;;2.45;1.52;;;;;;;;;;7392315;19;19998;-71
2022/08/22 08:09:45;;;;;;;2.75;1.60;;;;;;;;;;7391907;19;19999;-71
2022/08/22 08:12:12;;;;;;;2.67;1.70;;;;;;;;;;7391644;19;20061;-70
2022/08/22 08:14:42;;;;;;;3.08;1.50;;;;;;;;;;7391937;19;20611;-70
2022/08/22 08:17:20;;;;;;;2.60;1.70;;;;;;;;;;7392374;19;20104;-71
2022/08/22 08:19:46;;;;;;;2.20;1.42;;;;;;;;;;7394171;19;20007;-71
2022/08/22 08:22:20;;;;;;;2.45;1.55;;;;;;;;;;7393204;19;20054;-71
2022/08/22 08:24:48;;;;;;;3.05;1.50;;;;;;;;;;7392957;19;20077;-71
2022/08/22 08:30:29;;;;;;;2.13;1.50;;;;;;;;;;7392524;19;20072;-72
2022/08/22 08:32:57;;;;;;;1.42;1.33;;;;;;;;;;7389549;19;20010;-71
2022/08/22 08:35:28;;;;;;;3.22;1.75;;;;;;;;;;7391426;19;20006;-72
2022/08/22 08:38:06;;;;;;;2.00;1.50;;;;;;;;;;7392183;19;20082;-72
2022/08/22 08:40:31;;;;;;;1.70;1.50;;;;;;;;;;7392893;19;20007;-72
2022/08/22 08:43:28;;;;;;;4.23;1.90;;;;;;;;;;7392512;19;20022;-70
2022/08/22 08:46:06;;;;;;;4.38;1.90;;;;;;;;;;7389943;19;20291;-71
2022/08/22 08:48:59;;;;;;;3.60;1.90;;;;;;;;;;7392066;19;20456;-71
2022/08/22 08:51:39;;;;;;;2.15;1.65;;;;;;;;;;7389240;19;20005;-70
2022/08/22 08:54:08;;;;;;;;;;;;;;;;;;7392647;19;20002;-71
2022/08/22 08:57:02;;;;;;;3.00;1.65;;;;;;;;;;7390266;19;19918;-73
2022/08/22 08:59:40;;;;;;;2.08;1.52;;;;;;;;;;7389516;19;20002;-72
2022/08/22 09:02:19;;;;;;;2.28;1.50;;;;;;;;;;7390947;19;20003;-72
2022/08/22 09:05:05;;;;;;;2.33;1.58;;;;;;;;;;7390619;19;20005;-72
2022/08/22 09:08:01;;;;;;;7.90;4.97;;;;;;;;;;7390750;19;20095;-72
2022/08/22 09:11:04;;;;;;;2.83;2.00;;;;;;;;;;7389925;19;20015;-72
2022/08/22 09:13:51;;;;;;;2.63;1.83;;;;;;;;;;7389598;19;20425;-73
2022/08/22 09:16:32;;;;;;;2.10;1.60;;;;;;;;;;7388708;19;20022;-72
2022/08/22 09:19:22;;;;;;;2.40;1.98;;;;;;;;;;7391458;19;20010;-74
2022/08/22 09:22:26;;;;;;;2.95;1.80;;;;;;;;;;7391901;19;20009;-72
2022/08/22 09:25:16;;;;;;;2.20;1.70;;;;;;;;;;7391024;19;20305;-71
2022/08/22 09:28:06;;;;;;;2.88;1.85;;;;;;;;;;7391443;19;19998;-72
2022/08/22 09:30:46;;;;;;;3.85;1.90;;;;;;;;;;7389276;19;20018;-73
2022/08/22 09:33:16;;;;;;;2.00;1.77;;;;;;;;;;7387299;19;20031;-71
2022/08/22 09:36:03;;;;;;;2.40;1.73;;;;;;;;;;7390804;19;20006;-73
2022/08/22 09:38:56;;;;;;;4.68;1.70;;;;;;;;;;7390814;19;19998;-73
2022/08/22 09:41:51;;;;;;;3.05;1.90;;;;;;;;;;7392023;19;19994;-73
2022/08/22 09:44:38;;;;;;;5.22;2.28;;;;;;;;;;7389038;19;20008;-74
2022/08/22 09:47:22;;;;;;;4.20;2.42;;;;;;;;;;7390086;19;20415;-71
2022/08/22 09:50:14;;;;;;;2.35;1.80;;;;;;;;;;7389617;19;20333;-65
2022/08/22 09:53:06;;;;;;;3.72;1.90;;;;;;;;;;7388356;19;19994;-70
2022/08/22 09:55:52;;;;;;;22.65;18.27;;;;;;;;;;7387001;19;20015;-71
2022/08/22 09:58:35;;;;;;;3.67;1.80;;;;;;;;;;7387958;19;20496;-71
2022/08/22 10:01:17;;;;;;;3.00;1.85;;;;;;;;;;7390631;19;20023;-77
2022/08/22 10:03:45;;;;;;;55.42;5.78;;;;;;;;;;7387298;19;19995;-75
2022/08/22 10:06:39;;;;;;;4.57;2.30;;;;;;;;;;7394740;19;20370;-75
2022/08/22 10:09:11;;;;;;;3.95;2.10;;;;;;;;;;7397920;19;20006;-72
2022/08/22 10:11:49;;;;;;;2.22;1.60;;;;;;;;;;7395000;19;20376;-76
2022/08/22 10:14:22;;;;;;;2.40;1.88;;;;;;;;;;7395517;19;20529;-77
2022/08/22 10:16:47;;;;;;;2.67;1.90;;;;;;;;;;7392620;19;19999;-76
2022/08/22 10:19:25;;;;;;;2.17;1.60;;;;;;;;;;7393116;19;19995;-76
2022/08/22 10:22:09;;;;;;;2.25;1.67;;;;;;;;;;7394000;19;20267;-76
2022/08/22 10:24:58;;;;;;;1.98;1.63;;;;;;;;;;7390137;19;20015;-75
2022/08/22 10:27:45;;;;;;;3.10;1.88;;;;;;;;;;7390100;19;19998;-76
2022/08/22 10:30:16;;;;;;;2.60;1.75;;;;;;;;;;7387197;19;20006;-71
2022/08/22 10:33:01;;;;;;;3.30;1.80;;;;;;;;;;7387314;19;20509;-73
2022/08/22 10:35:31;;;;;;;7.22;5.22;;;;;;;;;;7390049;19;20453;-70
2022/08/22 10:38:04;;;;;;;2.13;1.67;;;;;;;;;;7390479;19;20003;-72
2022/08/22 10:40:35;;;;;;;3.78;2.20;;;;;;;;;;7386610;19;20013;-71
2022/08/22 10:43:13;;;;;;;2.40;1.60;;;;;;;;;;7393132;19;20460;-71
2022/08/22 10:45:51;;;;;;;2.40;1.63;;;;;;;;;;7393555;19;20002;-72
2022/08/22 10:48:29;;;;;;;2.50;1.80;;;;;;;;;;7389945;19;20372;-70
2022/08/22 10:51:03;;;;;;;2.33;1.80;;;;;;;;;;7394877;19;20440;-71
2022/08/22 10:54:04;;;;;;;2.55;1.90;;;;;;;;;;7390362;19;20574;-72
2022/08/22 10:56:56;;;;;;;2.28;1.67;;;;;;;;;;7391743;19;20009;-72
2022/08/22 10:59:31;;;;;;;2.67;1.60;;;;;;;;;;7391330;19;20010;-71
2022/08/22 11:02:16;;;;;;;2.50;1.73;;;;;;;;;;7393762;19;20006;-70
2022/08/22 11:05:06;;;;;;;2.80;1.40;;;;;;;;;;7395023;19;20002;-70
2022/08/22 11:07:45;;;;;;;2.47;1.48;;;;;;;;;;7392907;19;20001;-70
2022/08/22 11:10:29;;;;;;;;;;;;;;;;;;7393490;19;20003;-70
2022/08/22 11:13:14;;;;;;;2.92;1.70;;;;;;;;;;7390689;19;20337;-72
2022/08/22 11:16:10;;;;;;;2.83;1.80;;;;;;;;;;7388151;19;20006;-71
2022/08/22 11:18:54;;;;;;;1.88;1.50;;;;;;;;;;7389070;19;20386;-72
2022/08/22 11:21:39;;;;;;;2.13;1.80;;;;;;;;;;7394797;19;20827;-70
2022/08/22 11:24:25;;;;;;;2.03;1.50;;;;;;;;;;7390283;19;20011;-70
2022/08/22 11:27:03;;;;;;;2.22;1.58;;;;;;;;;;7387416;19;20002;-72
2022/08/22 11:29:52;;;;;;;4.15;1.80;;;;;;;;;;7388580;19;20006;-70
2022/08/22 11:32:27;;;;;;;2.33;1.58;;;;;;;;;;7389771;19;19995;-71
2022/08/22 11:35:01;;;;;;;2.90;1.77;;;;;;;;;;7393749;19;20218;-70
2022/08/22 11:38:07;;;;;;;2.55;1.48;;;;;;;;;;7390677;19;19994;-71
2022/08/22 11:40:43;;;;;;;2.42;1.40;;;;;;;;;;7394414;19;19990;-71
2022/08/22 11:43:50;;;;;;;2.55;1.40;;;;;;;;;;7393049;19;20006;-69
2022/08/22 11:46:18;;;;;;;3.17;2.13;;;;;;;;;;7391833;19;20020;-70
2022/08/22 11:48:46;;;;;;;61.85;6.07;;;;;;;;;;7385365;19;20003;-70
2022/08/22 11:51:30;;;;;;;2.22;1.60;;;;;;;;;;7393979;19;20002;-70
2022/08/22 11:54:08;;;;;;;3.08;1.80;;;;;;;;;;7392078;19;20011;-70
2022/08/22 11:56:47;;;;;;;1.48;1.38;;;;;;;;;;7390736;19;20357;-73
2022/08/22 11:59:28;;;;;;;3.30;1.50;;;;;;;;;;7394114;19;20500;-72
2022/08/22 12:01:59;;;;;;;2.75;1.73;;;;;;;;;;7391856;19;19994;-73
2022/08/22 12:04:36;;;;;;;2.63;1.67;;;;;;;;;;7392873;19;20001;-71
2022/08/22 12:07:16;;;;;;;1.70;1.50;;;;;;;;;;7389675;19;19995;-70
2022/08/22 12:10:03;;;;;;;1.95;1.50;;;;;;;;;;7389942;19;20062;-71
2022/08/22 12:12:34;;;;;;;2.60;1.42;;;;;;;;;;7389466;19;20005;-72
2022/08/22 12:15:17;;;;;;;2.35;1.73;;;;;;;;;;7391114;19;20436;-71
2022/08/22 12:17:54;;;;;;;2.35;1.45;;;;;;;;;;7390319;19;20001;-72
2022/08/22 12:20:53;;;;;;;2.78;1.70;;;;;;;;;;7391724;19;20345;-72
2022/08/22 12:23:33;;;;;;;1.90;1.45;;;;;;;;;;7393385;19;19990;-72
2022/08/22 12:26:02;;;;;;;2.67;1.83;;;;;;;;;;7390004;19;20003;-70
2022/08/22 12:28:38;;;;;;;1.50;1.40;;;;;;;;;;7389090;19;20018;-71
2022/08/22 12:31:14;;;;;;;2.67;1.60;;;;;;;;;;7393094;19;19995;-71
2022/08/22 12:33:57;;;;;;;1.98;1.50;;;;;;;;;;7391358;19;19990;-71
2022/08/22 12:36:50;;;;;;;3.63;1.80;;;;;;;;;;7388412;19;20003;-71
2022/08/22 12:39:43;;;;;;;1.42;1.33;;;;;;;;;;7392610;19;20006;-72
2022/08/22 12:42:28;;;;;;;2.08;1.42;;;;;;;;;;7390984;19;20459;-71
2022/08/22 12:45:10;;;;;;;2.30;1.45;;;;;;;;;;7391382;19;20099;-71
2022/08/22 12:47:54;;;;;;;1.50;1.40;;;;;;;;;;7388126;19;19998;-71
2022/08/22 12:50:36;;;;;;;3.63;2.08;;;;;;;;;;7390756;19;20001;-71
2022/08/22 12:53:29;;;;;;;2.50;1.67;;;;;;;;;;7391512;19;20019;-71
2022/08/22 12:56:03;;;;;;;2.92;1.65;;;;;;;;;;7390432;19;20070;-72
2022/08/22 12:59:21;;;;;;;2.50;1.63;;;;;;;;;;7390874;19;20002;-72
2022/08/22 13:01:50;;;;;;;1.67;1.20;;;;;;;;;;7389536;19;19998;-73
2022/08/22 13:04:20;;;;;;;1.75;1.38;;;;;;;;;;7390596;19;20014;-70
2022/08/22 13:07:06;;;;;;;2.35;1.40;;;;;;;;;;7389301;19;20002;-71
2022/08/22 13:09:45;;;;;;;2.67;1.42;;;;;;;;;;7389586;19;20366;-73
2022/08/22 13:12:30;;;;;;;2.53;1.50;;;;;;;;;;7389203;19;20405;-73
2022/08/22 13:15:25;;;;;;;1.40;1.30;;;;;;;;;;7392372;19;20023;-74
2022/08/22 13:17:51;;;;;;;2.08;1.30;;;;;;;;;;7387510;19;20054;-74
2022/08/22 13:20:29;;;;;;;1.58;1.40;;;;;;;;;;7391013;19;20069;-74
2022/08/22 13:22:57;;;;;;;2.75;1.45;;;;;;;;;;7390392;19;20006;-72
2022/08/22 13:25:24;;;;;;;2.75;1.40;;;;;;;;;;7389676;19;19998;-74
2022/08/22 13:28:00;;;;;;;2.80;1.60;;;;;;;;;;7388423;19;20006;-73
2022/08/22 13:30:35;;;;;;;2.95;1.50;;;;;;;;;;7388295;19;20011;-74
2022/08/22 13:33:15;;;;;;;1.50;1.33;;;;;;;;;;7386996;19;20014;-73
2022/08/22 13:35:44;;;;;;;1.70;1.40;;;;;;;;;;7390993;19;19998;-74
2022/08/22 13:38:38;;;;;;;2.22;1.50;;;;;;;;;;7390807;19;20096;-75
2022/08/22 13:41:06;;;;;;;1.95;1.50;;;;;;;;;;7396758;19;20468;-73
2022/08/22 13:43:51;;;;;;;2.47;1.77;;;;;;;;;;7398770;19;19995;-72
2022/08/22 13:46:24;;;;;;;1.98;1.35;;;;;;;;;;7394876;19;20035;-73
2022/08/22 13:48:53;;;;;;;2.05;1.48;;;;;;;;;;7396979;19;20005;-73
2022/08/22 13:51:27;;;;;;;2.03;1.52;;;;;;;;;;7398970;19;20019;-72
2022/08/22 13:53:55;;;;;;;3.08;1.52;;;;;;;;;;7396642;19;20002;-72
2022/08/22 13:56:26;;;;;;;2.22;1.30;;;;;;;;;;7394859;19;20344;-72
2022/08/22 13:58:59;;;;;;;2.25;1.50;;;;;;;;;;7396495;19;19999;-71
2022/08/22 14:01:24;;;;;;;2.80;1.70;;;;;;;;;;7394876;19;20029;-71
2022/08/22 14:03:59;;;;;;;3.13;1.50;;;;;;;;;;7395639;19;20456;-71
2022/08/22 14:06:32;;;;;;;4.55;1.73;;;;;;;;;;7392438;19;20010;-73
2022/08/22 14:09:10;;;;;;;2.70;1.70;;;;;;;;;;7396463;19;20005;-72
2022/08/22 14:11:44;;;;;;;2.45;1.67;;;;;;;;;;7394967;19;19998;-71
2022/08/22 14:14:11;;;;;;;2.67;1.48;;;;;;;;;;7397386;19;19995;-72
2022/08/22 14:16:49;;;;;;;1.75;1.38;;;;;;;;;;7393003;19;20107;-72
2022/08/22 14:19:23;;;;;;;1.45;1.35;;;;;;;;;;7382213;19;20010;-73
2022/08/22 14:21:54;;;;;;;1.88;1.25;;;;;;;;;;7389860;19;20503;-73
2022/08/22 14:24:27;;;;;;;3.08;1.83;;;;;;;;;;7391367;19;20010;-74
2022/08/22 14:26:57;;;;;;;1.88;1.50;;;;;;;;;;7388209;19;20013;-74
2022/08/22 14:29:27;;;;;;;2.60;1.70;;;;;;;;;;7387681;19;20005;-74
2022/08/22 14:32:10;;;;;;;2.58;1.40;;;;;;;;;;7385509;19;20027;-72
2022/08/22 14:34:39;;;;;;;1.38;1.27;;;;;;;;;;7392179;19;19998;-74
2022/08/22 14:37:19;;;;;;;2.37;1.40;;;;;;;;;;7390425;19;20052;-75
2022/08/22 14:39:55;;;;;;;1.60;1.25;;;;;;;;;;7387529;19;20395;-74
2022/08/22 14:42:29;;;;;;;2.25;1.50;;;;;;;;;;7390053;19;20006;-75
2022/08/22 14:45:12;;;;;;;1.77;1.30;;;;;;;;;;7391669;19;20003;-74
2022/08/22 14:48:20;;;;;;;1.83;1.20;;;;;;;;;;7391247;19;20018;-75
2022/08/22 14:50:48;;;;;;;1.95;1.65;;;;;;;;;;7389778;19;19999;-74
2022/08/22 14:53:19;;;;;;;2.42;1.35;;;;;;;;;;7392125;19;20035;-75
2022/08/22 14:56:03;;;;;;;3.47;1.40;;;;;;;;;;7391326;19;19998;-74
2022/08/22 14:58:33;;;;;;;3.15;1.70;;;;;;;;;;7392046;19;19994;-74
2022/08/22 15:01:08;;;;;;;2.10;1.40;;;;;;;;;;7392626;19;20039;-74
2022/08/22 15:03:37;;;;;;;1.23;1.13;;;;;;;;;;7392346;19;20035;-75
2022/08/22 15:06:34;;;;;;;2.55;1.33;;;;;;;;;;7391198;19;20014;-75
2022/08/22 15:09:04;;;;;;;2.10;1.52;;;;;;;;;;7391441;19;20009;-73
2022/08/22 15:11:31;;;;;;;2.17;1.42;;;;;;;;;;7392206;19;20054;-75
2022/08/22 15:13:59;;;;;;;2.30;1.60;;;;;;;;;;7392140;19;20022;-75
2022/08/22 15:16:34;;;;;;;2.55;1.55;;;;;;;;;;7389909;19;20476;-74
2022/08/22 15:19:01;;;;;;;3.15;1.52;;;;;;;;;;7391049;19;20010;-74
2022/08/22 15:21:30;;;;;;;2.65;1.55;;;;;;;;;;7391731;19;20003;-74
2022/08/22 15:24:01;;;;;;;1.53;1.37;;;;;;;;;;7391791;19;20468;-74
2022/08/22 15:26:40;;;;;;;2.67;1.58;;;;;;;;;;7389683;19;20009;-74
2022/08/22 15:29:18;;;;;;;6.30;1.60;;;;;;;;;;7390068;19;20015;-74
2022/08/22 15:31:44;;;;;;;2.38;1.50;;;;;;;;;;7391709;19;20054;-74
2022/08/22 15:34:22;;;;;;;2.55;1.58;;;;;;;;;;7391299;19;20365;-74
2022/08/22 15:37:00;;;;;;;4.65;2.97;;;;;;;;;;7388051;19;20002;-74
2022/08/22 15:40:06;;;;;;;4.28;2.53;;;;;;;;;;7389519;19;19998;-75
2022/08/22 15:42:42;;;;;;;2.60;1.70;;;;;;;;;;7388516;19;19999;-75
2022/08/22 15:45:19;;;;;;;1.45;1.27;;;;;;;;;;7389687;19;20010;-74
2022/08/22 15:47:50;;;;;;;2.80;1.30;;;;;;;;;;7387532;19;20361;-75
2022/08/22 15:50:37;;;;;;;1.63;1.20;;;;;;;;;;7390823;19;20078;-75
2022/08/22 15:53:19;;;;;;;2.17;1.30;;;;;;;;;;7388722;19;20083;-74
2022/08/22 15:56:14;;;;;;;3.20;1.58;;;;;;;;;;7388657;19;19999;-74
2022/08/22 15:58:43;;;;;;;3.03;1.45;;;;;;;;;;7384170;19;20006;-75
2022/08/22 16:01:20;;;;;;;2.70;1.45;;;;;;;;;;7389527;19;20414;-74